»·PEaware :: WAT169 KSNA-KPHX

WAT169 :: KSNA-KPHX

FLIGHT INFORMATION

Flight Status: Arrived
Operator:
Walker Air Transport
More flights by this operator :: More flights under this callsign
Pilot: Marty P. (27464)
Aircraft: BOEING 737-800
(B738)
More flights by this aircraft type
Origin: KSNA John Wayne-Orange Co
United States
Destination: KPHX Phoenix Sky Harbor Intl
United States
More flights between these airports :: More routes between these airports
Route: +STAYY3 CNERY BLH HYDRR1
File this flight plan on PilotEdge
Remarks:
Altitude:
(Current/Filed)
31,000ft
Speed:
(Current/Filed)
480kts
Departed: 16-Oct-20 05:24 PM
Arrived: 16-Oct-20 06:18 PM
Distance/Time
Traveled:
293nm/0:54
Distance/Time
To Go:
Arrived

Flight Plot

Page will automatically refresh every two minutes.

Flight plan parsing failed; only flown route is shown


Map Options




Map Legend


Flown Route
Filed Route
Departure Airport
Arrival Airport
Navaid (VOR, NDB)
Fix

Horizontal Profiles

Position Reports

Time Latitude Longitude Heading Altitude Ground
Speed
16-Oct-20 17:01 33.675005 -117.865072 118 66ft 0kts
16-Oct-20 17:01 33.675005 -117.865072 118 66ft 0kts
16-Oct-20 17:03 33.675005 -117.865072 118 66ft 0kts
16-Oct-20 17:03 33.675005 -117.865072 118 66ft 0kts
16-Oct-20 17:04 33.675005 -117.865072 118 66ft 0kts
16-Oct-20 17:05 33.675005 -117.865072 118 66ft 0kts
16-Oct-20 17:06 33.675005 -117.865073 118 66ft 0kts
16-Oct-20 17:07 33.675005 -117.865073 118 66ft 0kts
16-Oct-20 17:08 33.675005 -117.865073 118 66ft 0kts
16-Oct-20 17:09 33.675005 -117.865073 118 66ft 0kts
16-Oct-20 17:10 33.675005 -117.865073 118 66ft 0kts
16-Oct-20 17:11 33.675005 -117.865073 118 66ft 0kts
16-Oct-20 17:12 33.675095 -117.865276 118 66ft 2kts
16-Oct-20 17:13 33.675043 -117.865873 40 66ft 2kts
16-Oct-20 17:14 33.674922 -117.865964 27 66ft 0kts
16-Oct-20 17:15 33.674922 -117.865964 27 66ft 0kts
16-Oct-20 17:16 33.674922 -117.865964 27 66ft 0kts
16-Oct-20 17:17 33.674922 -117.865964 27 66ft 0kts
16-Oct-20 17:18 33.674922 -117.865964 27 66ft 0kts
16-Oct-20 17:19 33.674922 -117.865964 27 66ft 0kts
16-Oct-20 17:20 33.676449 -117.864992 27 66ft 13kts
16-Oct-20 17:21 33.680330 -117.862796 337 66ft 13kts
16-Oct-20 17:22 33.681465 -117.865082 255 66ft 8kts
16-Oct-20 17:23 33.664368 -117.876017 209 425ft 157kts
16-Oct-20 17:24 33.613097 -117.894647 203 2431ft 232kts
16-Oct-20 17:25 33.547574 -117.885240 152 5868ft 259kts
16-Oct-20 17:26 33.494690 -117.825743 117 9722ft 274kts
16-Oct-20 17:27 33.478252 -117.726958 80 11262ft 359kts
16-Oct-20 17:28 33.520678 -117.614871 59 14416ft 376kts
16-Oct-20 17:29 33.566640 -117.500219 79 17188ft 392kts
16-Oct-20 17:30 33.547517 -117.370656 110 19586ft 407kts
16-Oct-20 17:31 33.513901 -117.238490 102 21749ft 421kts
16-Oct-20 17:32 33.502666 -117.096843 92 23657ft 435kts
16-Oct-20 17:33 33.499383 -116.949726 92 25288ft 449kts
16-Oct-20 17:34 33.496981 -116.798242 91 26804ft 461kts
16-Oct-20 17:35 33.495233 -116.642938 91 28162ft 472kts
16-Oct-20 17:36 33.493302 -116.483928 91 29514ft 481kts
16-Oct-20 17:37 33.490907 -116.322805 92 30758ft 489kts
16-Oct-20 17:38 33.488271 -116.154661 92 30862ft 518kts
16-Oct-20 17:39 33.503147 -115.980277 73 30862ft 537kts
16-Oct-20 17:40 33.551960 -115.809443 70 30862ft 546kts
16-Oct-20 17:41 33.601601 -115.636642 75 30855ft 549kts
16-Oct-20 17:42 33.612159 -115.454922 90 30862ft 548kts
16-Oct-20 17:43 33.609998 -115.280536 92 30896ft 505kts
16-Oct-20 17:44 33.606209 -115.111417 92 30908ft 508kts
16-Oct-20 17:45 33.601864 -114.942526 92 30908ft 507kts
16-Oct-20 17:46 33.593605 -114.774048 100 30905ft 501kts
16-Oct-20 17:47 33.566131 -114.612539 103 30714ft 503kts
16-Oct-20 17:48 33.534832 -114.447051 103 28693ft 505kts
16-Oct-20 17:49 33.502956 -114.282948 104 25719ft 506kts
16-Oct-20 17:50 33.472552 -114.128132 104 24899ft 435kts
16-Oct-20 17:51 33.444706 -113.990090 104 23987ft 425kts
16-Oct-20 17:52 33.417401 -113.855283 104 23784ft 419kts
16-Oct-20 17:53 33.390367 -113.721165 104 22008ft 403kts
16-Oct-20 17:54 33.364227 -113.591882 103 20513ft 397kts
16-Oct-20 17:55 33.338500 -113.465274 103 19006ft 387kts
16-Oct-20 17:56 33.316496 -113.340628 102 17503ft 379kts
16-Oct-20 17:57 33.295622 -113.219107 101 15992ft 363kts
16-Oct-20 17:58 33.279307 -113.104422 99 15009ft 341kts
16-Oct-20 17:59 33.276172 -112.991314 87 13270ft 339kts
16-Oct-20 18:00 33.279102 -112.881296 88 11006ft 307kts
16-Oct-20 18:01 33.284156 -112.781071 83 11035ft 307kts
16-Oct-20 18:02 33.293882 -112.679962 83 11019ft 305kts
16-Oct-20 18:03 33.303380 -112.578582 83 11018ft 307kts
16-Oct-20 18:04 33.312795 -112.477159 83 11017ft 307kts
16-Oct-20 18:05 33.322150 -112.375469 83 11017ft 308kts
16-Oct-20 18:06 33.331154 -112.275540 83 10127ft 293kts
16-Oct-20 18:07 33.339801 -112.180085 84 8883ft 287kts
16-Oct-20 18:08 33.348031 -112.086798 84 7608ft 271kts
16-Oct-20 18:09 33.353573 -112.002764 90 6256ft 243kts
16-Oct-20 18:10 33.354415 -111.922400 90 5244ft 239kts
16-Oct-20 18:11 33.355354 -111.843172 90 4416ft 237kts
16-Oct-20 18:12 33.381278 -111.787843 355 4058ft 201kts
16-Oct-20 18:13 33.427479 -111.815286 279 4021ft 194kts
16-Oct-20 18:14 33.428511 -111.880487 268 3132ft 191kts
16-Oct-20 18:15 33.428721 -111.938551 269 2178ft 155kts
16-Oct-20 18:16 33.428795 -111.990478 269 1338ft 154kts
16-Oct-20 18:17 33.428896 -112.019882 279 1120ft 24kts
16-Oct-20 18:18 33.429941 -112.019958 89 1121ft 16kts
16-Oct-20 18:19 33.430188 -112.016270 60 1123ft 7kts
16-Oct-20 18:20 33.432263 -112.015216 40 1124ft 9kts

Navigation Log

Ident Type
Flight plan parsing failed, navigation log unavailable